createdAt,value
2022-11-16T00:01:09.276Z,94875.22
2022-11-16T00:03:36.473Z,94884.03
2022-11-16T00:06:05.587Z,94886.09
2022-11-16T00:08:35.252Z,94879.19
2022-11-16T00:11:14.183Z,94889.03
2022-11-16T00:13:42.825Z,94872.63
2022-11-16T00:16:15.891Z,94879.38
2022-11-16T00:18:43.890Z,94881.13
2022-11-16T00:21:11.270Z,94882.66
2022-11-16T00:23:38.901Z,94882.22
2022-11-16T00:26:07.794Z,94870.09
2022-11-16T00:28:35.339Z,94871.72
2022-11-16T00:31:04.528Z,94860.31
2022-11-16T00:33:32.063Z,94863.56
2022-11-16T00:36:01.438Z,94860.06
2022-11-16T00:38:28.658Z,94861.22
2022-11-16T00:40:55.325Z,94854.88
2022-11-16T00:43:22.177Z,94854.47
2022-11-16T00:45:49.003Z,94847.72
2022-11-16T00:48:15.933Z,94851.19
2022-11-16T00:50:44.878Z,94852.34
2022-11-16T00:53:14.739Z,94851.25
2022-11-16T00:55:41.580Z,94852.09
2022-11-16T00:58:10.026Z,94842.78
2022-11-16T01:00:39.107Z,94829.19
2022-11-16T01:03:06.342Z,94832.53
2022-11-16T01:05:33.486Z,94837.59
2022-11-16T01:08:00.771Z,94839.06
2022-11-16T01:10:28.463Z,94836.28
2022-11-16T01:12:55.711Z,94824.81
2022-11-16T01:15:25.547Z,94829.50
2022-11-16T01:17:53.959Z,94822.50
2022-11-16T01:20:24.397Z,94821.66
2022-11-16T01:22:51.544Z,94825.66
2022-11-16T01:25:18.886Z,94815.78
2022-11-16T01:27:45.922Z,94811.28
2022-11-16T01:30:19.539Z,94811.69
2022-11-16T01:32:57.437Z,94814.94
2022-11-16T01:35:24.418Z,94787.63
2022-11-16T01:37:51.597Z,94809.28
2022-11-16T01:40:18.906Z,94819.47
2022-11-16T01:42:46.126Z,94806.94
2022-11-16T01:45:21.687Z,94813.28
2022-11-16T01:47:53.548Z,94799.69
2022-11-16T01:50:23.715Z,94813.66
2022-11-16T01:52:57.305Z,94810.13
2022-11-16T01:55:28.849Z,94806.31
2022-11-16T01:58:18.207Z,94816.44
2022-11-16T02:00:49.188Z,94815.72
2022-11-16T02:03:40.435Z,94804.72
2022-11-16T02:06:41.695Z,94796.78
2022-11-16T02:09:55.207Z,94792.81
2022-11-16T02:12:38.051Z,94787.59
2022-11-16T02:15:30.268Z,94779.09
2022-11-16T02:18:48.913Z,94786.72
2022-11-16T02:21:41.161Z,94779.66
2022-11-16T02:24:35.709Z,94786.53
2022-11-16T02:27:14.657Z,94788.25
2022-11-16T02:29:45.727Z,94789.84
2022-11-16T02:32:15.261Z,94787.13
2022-11-16T02:34:53.272Z,94785.22
2022-11-16T02:37:24.261Z,94779.53
2022-11-16T02:39:58.350Z,94756.47
2022-11-16T02:42:32.937Z,94778.34
2022-11-16T02:45:02.505Z,94759.63
2022-11-16T02:47:32.926Z,94774.53
2022-11-16T02:50:04.604Z,94734.19
2022-11-16T02:52:31.438Z,94768.22
2022-11-16T02:54:58.207Z,94764.59
2022-11-16T02:57:53.699Z,94772.16
2022-11-16T03:00:27.155Z,94772.84
2022-11-16T03:03:21.935Z,94761.94
2022-11-16T03:05:53.438Z,94767.94
2022-11-16T03:08:39.686Z,94765.22
2022-11-16T03:11:30.077Z,94752.66
2022-11-16T03:14:08.231Z,94750.66
2022-11-16T03:16:40.193Z,94749.00
2022-11-16T03:19:10.827Z,94752.09
2022-11-16T03:21:52.209Z,94753.94
2022-11-16T03:24:20.681Z,94748.72
2022-11-16T03:26:59.811Z,94753.47
2022-11-16T03:29:31.837Z,94736.13
2022-11-16T03:32:17.986Z,94752.50
2022-11-16T03:34:55.183Z,94748.25
2022-11-16T03:37:24.956Z,94740.09
2022-11-16T03:39:54.029Z,94753.94
2022-11-16T03:42:24.355Z,94748.16
2022-11-16T03:44:52.138Z,94739.22
2022-11-16T03:47:18.894Z,94746.13
2022-11-16T03:49:46.695Z,94749.66
2022-11-16T03:52:17.358Z,94751.91
2022-11-16T03:54:44.697Z,94750.03
2022-11-16T03:57:15.660Z,94739.22
2022-11-16T03:59:45.380Z,94734.25
2022-11-16T04:02:12.242Z,94737.94
2022-11-16T04:04:57.938Z,94724.47
2022-11-16T04:07:43.385Z,94734.19
2022-11-16T04:10:29.891Z,94721.63
2022-11-16T04:13:16.672Z,94722.00
2022-11-16T04:16:02.431Z,94697.47
2022-11-16T04:18:48.265Z,94714.28
2022-11-16T04:21:59.325Z,94712.19
2022-11-16T04:24:35.064Z,94720.34
2022-11-16T04:27:24.278Z,94705.22
2022-11-16T04:29:51.904Z,94711.06
2022-11-16T04:32:37.481Z,94714.00
2022-11-16T04:35:22.862Z,94715.47
2022-11-16T04:37:49.803Z,94711.84
2022-11-16T04:40:24.459Z,94703.28
2022-11-16T04:42:52.875Z,94698.63
2022-11-16T04:45:39.205Z,94703.13
2022-11-16T04:48:07.011Z,94696.00
2022-11-16T04:50:36.870Z,94719.72
2022-11-16T04:53:04.798Z,94705.13
2022-11-16T04:55:37.330Z,94701.16
2022-11-16T04:58:05.060Z,94705.91
2022-11-16T05:00:32.456Z,94697.72
2022-11-16T05:03:01.763Z,94693.53
2022-11-16T05:05:29.827Z,94701.63
2022-11-16T05:07:58.247Z,94687.25
2022-11-16T05:10:28.417Z,94695.94
2022-11-16T05:12:55.674Z,94691.19
2022-11-16T05:15:23.884Z,94689.38
2022-11-16T05:17:51.548Z,94680.53
2022-11-16T05:20:40.850Z,94692.41
2022-11-16T05:23:28.253Z,94690.47
2022-11-16T05:25:57.148Z,94689.22
2022-11-16T05:28:23.916Z,94694.84
2022-11-16T05:30:51.942Z,94690.00
2022-11-16T05:33:22.756Z,94694.34
2022-11-16T05:35:51.554Z,94685.63
2022-11-16T05:38:19.913Z,94700.28
2022-11-16T05:40:51.744Z,94692.22
2022-11-16T05:43:18.529Z,94673.28
2022-11-16T05:45:56.314Z,94692.00
2022-11-16T05:48:23.345Z,94695.16
2022-11-16T05:50:50.117Z,94689.34
2022-11-16T05:53:23.299Z,94693.38
2022-11-16T05:55:50.378Z,94696.56
2022-11-16T05:58:18.675Z,94694.22
2022-11-16T06:00:49.219Z,94699.31
2022-11-16T06:03:17.542Z,94690.81
2022-11-16T06:05:44.386Z,94692.28
2022-11-16T06:08:13.854Z,94697.47
2022-11-16T06:10:41.045Z,94704.53
2022-11-16T06:13:08.313Z,94692.66
2022-11-16T06:15:40.109Z,94701.06
2022-11-16T06:18:09.416Z,94693.59
2022-11-16T06:20:38.472Z,94691.09
2022-11-16T06:23:06.690Z,94698.47
2022-11-16T06:25:34.513Z,94696.34
2022-11-16T06:28:06.617Z,94693.22
2022-11-16T06:30:35.123Z,94687.41
2022-11-16T06:33:03.228Z,94696.16
2022-11-16T06:35:30.253Z,94705.47
2022-11-16T06:37:58.253Z,94691.56
2022-11-16T06:40:25.896Z,94694.75
2022-11-16T06:42:53.180Z,94702.41
2022-11-16T06:45:19.834Z,94681.91
2022-11-16T06:47:51.099Z,94689.53
2022-11-16T06:50:19.361Z,94694.28
2022-11-16T06:52:48.661Z,94688.69
2022-11-16T06:55:16.788Z,94692.81
2022-11-16T06:57:46.354Z,94672.84
2022-11-16T07:00:13.948Z,94671.41
2022-11-16T07:02:41.155Z,94678.66
2022-11-16T07:05:13.208Z,94681.22
2022-11-16T07:07:41.054Z,94684.22
2022-11-16T07:10:08.552Z,94677.13
2022-11-16T07:12:36.206Z,94678.06
2022-11-16T07:15:03.697Z,94682.34
2022-11-16T07:17:33.875Z,94679.25
2022-11-16T07:20:00.845Z,94671.41
2022-11-16T07:22:28.808Z,94675.19
2022-11-16T07:24:55.550Z,94671.75
2022-11-16T07:27:23.165Z,94681.81
2022-11-16T07:29:51.654Z,94678.00
2022-11-16T07:32:40.062Z,94663.22
2022-11-16T07:35:23.144Z,94676.13
2022-11-16T07:37:50.572Z,94661.41
2022-11-16T07:40:19.413Z,94657.44
2022-11-16T07:42:46.704Z,94655.88
2022-11-16T07:45:38.099Z,94655.34
2022-11-16T07:48:07.734Z,94665.34
2022-11-16T07:50:53.166Z,94661.16
2022-11-16T07:53:20.929Z,94665.38
2022-11-16T07:55:54.687Z,94654.88
2022-11-16T07:58:23.934Z,94659.03
2022-11-16T08:00:52.895Z,94650.69
2022-11-16T08:03:24.617Z,94656.94
2022-11-16T08:06:00.107Z,94655.34
2022-11-16T08:08:27.264Z,94659.78
2022-11-16T08:11:06.848Z,94653.56
2022-11-16T08:13:35.837Z,94647.53
2022-11-16T08:16:18.905Z,94641.28
2022-11-16T08:18:48.675Z,94634.72
2022-11-16T08:21:17.936Z,94634.22
2022-11-16T08:23:45.907Z,94636.81
2022-11-16T08:26:16.607Z,94627.13
2022-11-16T08:28:53.939Z,94623.22
2022-11-16T08:31:27.930Z,94617.19
2022-11-16T08:34:01.874Z,94622.44
2022-11-16T08:36:30.588Z,94617.16
2022-11-16T08:38:58.124Z,94617.97
2022-11-16T08:41:25.198Z,94612.19
2022-11-16T08:43:53.525Z,94610.84
2022-11-16T08:46:22.852Z,94614.03
2022-11-16T08:48:57.082Z,94612.19
2022-11-16T08:54:10.446Z,94604.06
2022-11-16T08:56:40.675Z,94604.03
2022-11-16T08:59:08.569Z,94601.19
2022-11-16T09:01:40.047Z,94601.41
2022-11-16T09:04:08.085Z,94601.16
2022-11-16T09:06:36.157Z,94598.75
2022-11-16T09:09:03.068Z,94607.97
2022-11-16T09:11:30.002Z,94603.44
2022-11-16T09:13:59.016Z,94599.72
2022-11-16T09:16:28.213Z,94600.25
2022-11-16T09:18:55.831Z,94586.03
2022-11-16T09:21:23.847Z,94576.59
2022-11-16T09:23:51.532Z,94580.03
2022-11-16T09:26:22.942Z,94571.59
2022-11-16T09:28:58.137Z,94554.75
2022-11-16T09:31:27.509Z,94552.22
2022-11-16T09:33:58.412Z,94541.34
2022-11-16T09:36:27.139Z,94542.19
2022-11-16T09:39:25.781Z,94537.72
2022-11-16T09:41:48.681Z,94533.81
2022-11-16T09:44:52.937Z,94526.84
2022-11-16T09:47:23.900Z,94521.19
2022-11-16T09:50:01.533Z,94521.88
2022-11-16T09:55:52.169Z,94510.28
2022-11-16T09:58:42.011Z,94509.97
2022-11-16T10:01:49.316Z,94503.16
2022-11-16T10:04:47.143Z,94500.69
2022-11-16T10:07:27.927Z,94484.56
2022-11-16T10:09:56.145Z,94489.75
2022-11-16T10:12:38.096Z,94477.13
2022-11-16T10:15:19.886Z,94471.72
2022-11-16T10:17:49.657Z,94462.75
2022-11-16T10:20:40.970Z,94459.94
2022-11-16T10:23:21.343Z,94446.94
2022-11-16T10:25:55.289Z,94449.97
2022-11-16T10:28:52.287Z,94443.66
2022-11-16T10:31:28.308Z,94445.75
2022-11-16T10:33:58.970Z,94425.38
2022-11-16T10:36:30.864Z,94419.25
2022-11-16T10:39:00.504Z,94411.38
2022-11-16T10:41:41.926Z,94418.69
2022-11-16T10:44:22.093Z,94421.50
2022-11-16T10:47:04.944Z,94418.16
2022-11-16T10:49:40.513Z,94420.44
2022-11-16T10:52:07.411Z,94418.44
2022-11-16T10:54:34.306Z,94416.44
2022-11-16T10:57:08.961Z,94401.47
2022-11-16T10:59:53.306Z,94400.50
2022-11-16T11:02:20.114Z,94405.25
2022-11-16T11:05:01.046Z,94390.06
2022-11-16T11:07:42.303Z,94379.09
2022-11-16T11:10:30.792Z,94379.41
2022-11-16T11:13:19.686Z,94378.88
2022-11-16T11:15:48.071Z,94368.47
2022-11-16T11:18:25.423Z,94356.06
2022-11-16T11:21:15.274Z,94356.19
2022-11-16T11:23:53.940Z,94346.81
2022-11-16T11:26:38.623Z,94351.38
2022-11-16T11:29:20.711Z,94315.25
2022-11-16T11:31:52.015Z,94330.56
2022-11-16T11:34:25.507Z,94330.38
2022-11-16T11:36:58.055Z,94328.94
2022-11-16T11:42:17.912Z,94325.63
2022-11-16T11:44:54.622Z,94309.75
2022-11-16T11:48:02.121Z,94316.59
2022-11-16T11:50:40.445Z,94315.28
2022-11-16T11:53:10.458Z,94311.91
2022-11-16T11:55:37.753Z,94304.81
2022-11-16T11:58:06.170Z,94282.56
2022-11-16T12:01:00.872Z,94289.38
2022-11-16T12:03:42.235Z,94286.78
2022-11-16T12:06:22.701Z,94276.63
2022-11-16T12:09:23.315Z,94286.75
2022-11-16T12:11:58.941Z,94281.94
2022-11-16T12:14:56.073Z,94284.91
2022-11-16T12:17:22.919Z,94278.47
2022-11-16T12:20:16.157Z,94268.31
2022-11-16T12:22:48.618Z,94277.78
2022-11-16T12:25:57.017Z,94270.75
2022-11-16T12:28:41.213Z,94265.66
2022-11-16T12:31:33.060Z,94263.91
2022-11-16T12:34:23.155Z,94263.47
2022-11-16T12:37:05.900Z,94244.94
2022-11-16T12:39:44.790Z,94239.97
2022-11-16T12:42:30.468Z,94240.06
2022-11-16T12:45:19.291Z,94245.22
2022-11-16T12:48:26.647Z,94248.88
2022-11-16T12:51:14.883Z,94241.97
2022-11-16T12:54:02.611Z,94246.44
2022-11-16T12:56:37.957Z,94228.09
2022-11-16T12:59:17.332Z,94226.69
2022-11-16T13:02:17.294Z,94229.31
2022-11-16T13:04:51.112Z,94215.75
2022-11-16T13:07:24.965Z,94224.97
2022-11-16T13:10:03.041Z,94217.03
2022-11-16T13:12:31.497Z,94226.81
2022-11-16T13:15:02.209Z,94219.59
2022-11-16T13:17:34.376Z,94218.97
2022-11-16T13:20:27.850Z,94222.31
2022-11-16T13:23:05.098Z,94210.91
2022-11-16T13:25:39.245Z,94214.19
2022-11-16T13:28:33.519Z,94209.38
2022-11-16T13:31:08.838Z,94187.25
2022-11-16T13:33:51.194Z,94206.31
2022-11-16T13:36:46.330Z,94207.50
2022-11-16T13:39:22.841Z,94212.78
2022-11-16T13:42:05.027Z,94196.94
2022-11-16T13:44:36.248Z,94177.97
2022-11-16T13:47:07.148Z,94203.13
2022-11-16T13:49:41.029Z,94206.72
2022-11-16T13:52:23.274Z,94210.34
2022-11-16T13:54:55.719Z,94212.06
2022-11-16T13:57:27.098Z,94210.38
2022-11-16T14:00:10.615Z,94206.88
2022-11-16T14:02:42.087Z,94203.38
2022-11-16T14:05:39.526Z,94214.25
2022-11-16T14:08:24.450Z,94210.78
2022-11-16T14:10:51.371Z,94206.78
2022-11-16T14:13:30.332Z,94198.31
2022-11-16T14:16:15.570Z,94200.88
2022-11-16T14:18:43.840Z,94194.19
2022-11-16T14:21:10.502Z,94184.34
2022-11-16T14:24:09.886Z,94190.94
2022-11-16T14:27:10.628Z,94204.09
2022-11-16T14:29:46.518Z,94184.28
2022-11-16T14:32:41.300Z,94185.75
2022-11-16T14:35:36.744Z,94187.41
2022-11-16T14:38:17.894Z,94185.88
2022-11-16T14:40:54.917Z,94187.59
2022-11-16T14:43:49.961Z,94181.50
2022-11-16T14:46:27.028Z,94174.06
2022-11-16T14:48:59.258Z,94182.63
2022-11-16T14:51:34.627Z,94185.75
2022-11-16T14:54:15.979Z,94175.56
2022-11-16T14:57:03.221Z,94166.59
2022-11-16T14:59:32.009Z,94185.34
2022-11-16T15:02:03.890Z,94170.91
2022-11-16T15:04:31.699Z,94176.34
2022-11-16T15:07:03.142Z,94160.81
2022-11-16T15:09:39.500Z,94174.25
2022-11-16T15:12:31.780Z,94167.03
2022-11-16T15:15:04.278Z,94168.03
2022-11-16T15:17:33.426Z,94152.81
2022-11-16T15:20:03.595Z,94167.59
2022-11-16T15:22:32.576Z,94157.38
2022-11-16T15:25:01.019Z,94169.69
2022-11-16T15:27:27.949Z,94161.84
2022-11-16T15:29:55.130Z,94161.28
2022-11-16T15:32:21.798Z,94122.84
2022-11-16T15:34:53.435Z,94152.72
2022-11-16T15:37:28.202Z,94160.66
2022-11-16T15:39:56.389Z,94162.81
2022-11-16T15:42:25.677Z,94155.34
2022-11-16T15:44:53.070Z,94161.56
2022-11-16T15:47:21.593Z,94150.88
2022-11-16T15:49:52.932Z,94155.25
2022-11-16T15:52:50.471Z,94158.06
2022-11-16T15:55:40.014Z,94163.38
2022-11-16T15:58:26.902Z,94159.94
2022-11-16T16:00:55.208Z,94162.75
2022-11-16T16:03:24.915Z,94160.09
2022-11-16T16:05:53.087Z,94157.66
2022-11-16T16:08:31.959Z,94164.56
2022-11-16T16:10:59.457Z,94166.78
2022-11-16T16:13:32.505Z,94169.53
2022-11-16T16:16:12.919Z,94167.00
2022-11-16T16:18:44.342Z,94162.06
2022-11-16T16:21:12.830Z,94179.56
2022-11-16T16:23:53.875Z,94169.84
2022-11-16T16:26:21.754Z,94172.28
2022-11-16T16:28:50.315Z,94171.78
2022-11-16T16:31:19.220Z,94188.13
2022-11-16T16:33:46.585Z,94169.34
2022-11-16T16:36:13.755Z,94172.59
2022-11-16T16:38:40.594Z,94179.44
2022-11-16T16:41:08.113Z,94168.69
2022-11-16T16:43:35.517Z,94171.94
2022-11-16T16:46:04.072Z,94178.50
2022-11-16T16:48:31.071Z,94177.81
2022-11-16T16:50:57.793Z,94171.66
2022-11-16T16:53:24.606Z,94160.56
2022-11-16T16:55:51.760Z,94169.78
2022-11-16T16:58:18.579Z,94170.88
2022-11-16T17:00:46.558Z,94173.69
2022-11-16T17:03:20.463Z,94167.38
2022-11-16T17:05:47.314Z,94175.56
2022-11-16T17:08:13.982Z,94169.81
2022-11-16T17:10:40.763Z,94166.25
2022-11-16T17:13:10.098Z,94166.63
2022-11-16T17:15:36.774Z,94154.53
2022-11-16T17:18:04.643Z,94156.56
2022-11-16T17:20:32.890Z,94159.47
2022-11-16T17:23:00.593Z,94168.06
2022-11-16T17:25:27.728Z,94168.84
2022-11-16T17:27:55.058Z,94154.78
2022-11-16T17:30:21.990Z,94170.78
2022-11-16T17:32:48.840Z,94152.06
2022-11-16T17:35:15.862Z,94169.22
2022-11-16T17:37:42.620Z,94153.59
2022-11-16T17:40:12.502Z,94136.16
2022-11-16T17:42:39.322Z,94147.31
2022-11-16T17:45:06.678Z,94149.84
2022-11-16T17:47:33.886Z,94149.50
2022-11-16T17:50:01.046Z,94143.09
2022-11-16T17:52:27.831Z,94140.88
2022-11-16T17:54:54.627Z,94143.75
2022-11-16T17:57:21.378Z,94150.88
2022-11-16T17:59:48.185Z,94141.75
2022-11-16T18:02:14.903Z,94135.56
2022-11-16T18:04:43.609Z,94136.59
2022-11-16T18:07:12.627Z,94140.88
2022-11-16T18:09:39.268Z,94134.03
2022-11-16T18:12:06.143Z,94130.47
2022-11-16T18:14:32.926Z,94123.31
2022-11-16T18:16:59.680Z,94133.19
2022-11-16T18:19:26.359Z,94134.66
2022-11-16T18:21:53.121Z,94139.53
2022-11-16T18:24:19.968Z,94122.56
2022-11-16T18:26:46.666Z,94110.41
2022-11-16T18:29:16.100Z,94108.28
2022-11-16T18:31:43.227Z,94110.88
2022-11-16T18:34:13.561Z,94112.09
2022-11-16T18:36:40.402Z,94109.38
2022-11-16T18:39:07.430Z,94094.38
2022-11-16T18:41:34.347Z,94108.06
2022-11-16T18:44:02.269Z,94115.56
2022-11-16T18:46:31.539Z,94109.44
2022-11-16T18:48:59.120Z,94108.50
2022-11-16T18:51:27.694Z,94109.84
2022-11-16T18:53:55.307Z,94108.63
2022-11-16T18:56:22.939Z,94118.34
2022-11-16T18:58:52.070Z,94124.94
2022-11-16T19:01:22.300Z,94130.22
2022-11-16T19:03:49.843Z,94123.72
2022-11-16T19:06:17.839Z,94121.09
2022-11-16T19:08:53.719Z,94117.88
2022-11-16T19:11:23.412Z,94106.81
2022-11-16T19:13:53.869Z,94114.63
2022-11-16T19:16:21.039Z,94114.50
2022-11-16T19:18:47.868Z,94118.22
2022-11-16T19:21:16.946Z,94125.31
2022-11-16T19:23:48.875Z,94121.91
2022-11-16T19:26:18.451Z,94106.13
2022-11-16T19:28:46.952Z,94108.44
2022-11-16T19:31:19.985Z,94116.66
2022-11-16T19:33:47.171Z,94111.91
2022-11-16T19:36:18.878Z,94124.31
2022-11-16T19:38:47.490Z,94110.31
2022-11-16T19:41:16.503Z,94105.00
2022-11-16T19:43:43.192Z,94105.50
2022-11-16T19:46:13.448Z,94110.78
2022-11-16T19:48:40.162Z,94119.94
2022-11-16T19:51:16.139Z,94121.94
2022-11-16T19:53:43.358Z,94124.09
2022-11-16T19:56:12.247Z,94128.16
2022-11-16T19:58:39.220Z,94119.19
2022-11-16T20:01:18.418Z,94113.59
2022-11-16T20:03:46.201Z,94103.44
2022-11-16T20:06:18.066Z,94097.72
2022-11-16T20:08:53.976Z,94081.19
2022-11-16T20:11:22.116Z,94094.50
2022-11-16T20:13:50.470Z,94103.31
2022-11-16T20:16:19.271Z,94114.44
2022-11-16T20:18:46.587Z,94097.47
2022-11-16T20:21:30.941Z,94103.00
2022-11-16T20:24:03.027Z,94098.81
2022-11-16T20:26:34.936Z,94100.38
2022-11-16T20:29:02.087Z,94080.56
2022-11-16T20:31:31.000Z,94084.19
2022-11-16T20:34:00.235Z,94061.66
2022-11-16T20:36:29.699Z,94058.41
2022-11-16T20:38:57.758Z,94056.88
2022-11-16T20:41:29.923Z,94053.88
2022-11-16T20:43:58.717Z,94055.56
2022-11-16T20:46:28.083Z,94050.28
2022-11-16T20:48:57.049Z,94052.31
2022-11-16T20:51:23.813Z,94049.56
2022-11-16T20:53:52.431Z,94041.03
2022-11-16T20:56:20.432Z,94037.38
2022-11-16T20:58:48.755Z,94049.31
2022-11-16T21:01:31.884Z,94049.31
2022-11-16T21:04:04.082Z,94033.34
2022-11-16T21:06:32.833Z,94043.28
2022-11-16T21:09:00.034Z,94038.34
2022-11-16T21:11:55.806Z,94044.41
2022-11-16T21:14:23.066Z,94035.06
2022-11-16T21:16:49.834Z,94039.22
2022-11-16T21:19:19.897Z,94038.81
2022-11-16T21:21:46.611Z,94034.16
2022-11-16T21:24:13.471Z,94028.69
2022-11-16T21:26:40.275Z,94039.25
2022-11-16T21:29:07.136Z,94033.28
2022-11-16T21:31:36.325Z,94040.34
2022-11-16T21:34:04.691Z,94019.28
2022-11-16T21:36:32.709Z,94028.19
2022-11-16T21:39:00.270Z,94019.38
2022-11-16T21:41:27.783Z,94018.84
2022-11-16T21:43:55.023Z,94015.44
2022-11-16T21:46:25.002Z,94014.75
2022-11-16T21:48:53.813Z,94009.03
2022-11-16T21:51:22.896Z,94017.34
2022-11-16T21:53:49.644Z,94020.28
2022-11-16T21:56:21.850Z,94010.72
2022-11-16T21:58:50.465Z,94003.63
2022-11-16T22:01:17.465Z,94005.47
2022-11-16T22:03:44.934Z,93996.03
2022-11-16T22:06:34.434Z,93988.50
2022-11-16T22:09:01.404Z,93999.81
2022-11-16T22:11:28.191Z,93984.16
2022-11-16T22:13:55.098Z,93988.75
2022-11-16T22:16:23.495Z,94012.53
2022-11-16T22:18:50.930Z,93992.03
2022-11-16T22:21:18.043Z,94001.81
2022-11-16T22:23:44.931Z,94003.38
2022-11-16T22:26:13.430Z,93991.31
2022-11-16T22:28:40.859Z,93989.16
2022-11-16T22:31:15.080Z,93995.22
2022-11-16T22:33:42.250Z,93998.06
2022-11-16T22:36:10.552Z,93982.63
2022-11-16T22:38:38.236Z,93971.34
2022-11-16T22:41:05.405Z,93962.44
2022-11-16T22:43:33.159Z,93955.53
2022-11-16T22:46:05.394Z,93948.72
2022-11-16T22:48:34.518Z,93941.88
2022-11-16T22:51:03.407Z,93954.25
2022-11-16T22:53:30.150Z,93943.44
2022-11-16T22:56:07.866Z,93937.44
2022-11-16T22:58:35.958Z,93941.88
2022-11-16T23:01:03.689Z,93945.94
2022-11-16T23:03:30.658Z,93948.22
2022-11-16T23:05:57.519Z,93955.81
2022-11-16T23:08:27.343Z,93961.16
2022-11-16T23:11:23.710Z,93939.72
2022-11-16T23:14:11.714Z,93947.34
2022-11-16T23:16:39.885Z,93948.28
2022-11-16T23:19:28.140Z,93955.88
2022-11-16T23:22:14.479Z,93957.81
2022-11-16T23:24:59.815Z,93951.13
2022-11-16T23:27:33.624Z,93949.19
2022-11-16T23:30:05.448Z,93948.97
2022-11-16T23:32:36.142Z,93944.28
2022-11-16T23:35:03.218Z,93949.09
2022-11-16T23:37:29.917Z,93943.03
2022-11-16T23:39:56.587Z,93927.56
2022-11-16T23:42:42.068Z,93926.59
2022-11-16T23:45:09.231Z,93930.94
2022-11-16T23:47:36.015Z,93930.00
2022-11-16T23:50:03.166Z,93909.56
2022-11-16T23:52:29.871Z,93924.44
2022-11-16T23:54:56.524Z,93920.72
2022-11-16T23:57:23.563Z,93922.56
2022-11-16T23:59:50.265Z,93920.56
